sensor_id;sensor_type;location;lat;lon;timestamp;P1;durP1;ratioP1;P2;durP2;ratioP2
68995;SDS011;56056;48.990;12.146;2023-01-16T00:00:58;32.33;;;7.07;;
68995;SDS011;56056;48.990;12.146;2023-01-16T00:03:24;10.52;;;4.57;;
68995;SDS011;56056;48.990;12.146;2023-01-16T00:05:49;26.30;;;7.30;;
68995;SDS011;56056;48.990;12.146;2023-01-16T00:08:15;19.00;;;3.88;;
68995;SDS011;56056;48.990;12.146;2023-01-16T00:10:42;111.20;;;46.97;;
68995;SDS011;56056;48.990;12.146;2023-01-16T00:13:08;22.73;;;9.45;;
68995;SDS011;56056;48.990;12.146;2023-01-16T00:15:36;57.85;;;20.25;;
68995;SDS011;56056;48.990;12.146;2023-01-16T00:18:02;21.92;;;9.07;;
68995;SDS011;56056;48.990;12.146;2023-01-16T00:20:28;58.63;;;21.50;;
68995;SDS011;56056;48.990;12.146;2023-01-16T00:22:53;81.13;;;38.65;;
68995;SDS011;56056;48.990;12.146;2023-01-16T00:25:19;50.50;;;21.00;;
68995;SDS011;56056;48.990;12.146;2023-01-16T00:27:44;52.13;;;21.05;;
68995;SDS011;56056;48.990;12.146;2023-01-16T00:30:10;27.55;;;7.85;;
68995;SDS011;56056;48.990;12.146;2023-01-16T00:32:37;25.20;;;10.32;;
68995;SDS011;56056;48.990;12.146;2023-01-16T00:35:04;19.60;;;10.52;;
68995;SDS011;56056;48.990;12.146;2023-01-16T00:37:30;50.08;;;17.10;;
68995;SDS011;56056;48.990;12.146;2023-01-16T00:39:56;30.95;;;8.65;;
68995;SDS011;56056;48.990;12.146;2023-01-16T00:42:21;22.02;;;6.13;;
68995;SDS011;56056;48.990;12.146;2023-01-16T00:44:47;27.70;;;10.35;;
68995;SDS011;56056;48.990;12.146;2023-01-16T00:47:13;41.40;;;17.23;;
68995;SDS011;56056;48.990;12.146;2023-01-16T00:49:40;8.57;;;3.72;;
68995;SDS011;56056;48.990;12.146;2023-01-16T00:52:05;48.47;;;14.90;;
68995;SDS011;56056;48.990;12.146;2023-01-16T00:54:31;48.95;;;13.55;;
68995;SDS011;56056;48.990;12.146;2023-01-16T00:56:56;31.27;;;6.40;;
68995;SDS011;56056;48.990;12.146;2023-01-16T00:59:22;8.88;;;4.88;;
68995;SDS011;56056;48.990;12.146;2023-01-16T01:01:48;13.50;;;6.30;;
68995;SDS011;56056;48.990;12.146;2023-01-16T01:04:13;40.45;;;16.80;;
68995;SDS011;56056;48.990;12.146;2023-01-16T01:06:40;5.05;;;1.33;;
68995;SDS011;56056;48.990;12.146;2023-01-16T01:09:06;11.50;;;4.72;;
68995;SDS011;56056;48.990;12.146;2023-01-16T01:11:32;1.00;;;0.95;;
68995;SDS011;56056;48.990;12.146;2023-01-16T01:13:58;3.10;;;2.85;;
68995;SDS011;56056;48.990;12.146;2023-01-16T01:16:24;38.70;;;13.35;;
68995;SDS011;56056;48.990;12.146;2023-01-16T01:18:49;48.33;;;16.38;;
68995;SDS011;56056;48.990;12.146;2023-01-16T01:21:15;10.40;;;4.38;;
68995;SDS011;56056;48.990;12.146;2023-01-16T01:23:42;9.05;;;8.13;;
68995;SDS011;56056;48.990;12.146;2023-01-16T01:26:09;31.67;;;8.00;;
68995;SDS011;56056;48.990;12.146;2023-01-16T01:28:36;3.42;;;3.17;;
68995;SDS011;56056;48.990;12.146;2023-01-16T01:31:02;59.28;;;35.83;;
68995;SDS011;56056;48.990;12.146;2023-01-16T01:33:28;31.33;;;20.33;;
68995;SDS011;56056;48.990;12.146;2023-01-16T01:35:54;11.03;;;6.03;;
68995;SDS011;56056;48.990;12.146;2023-01-16T01:38:19;58.03;;;28.02;;
68995;SDS011;56056;48.990;12.146;2023-01-16T01:40:46;32.92;;;19.27;;
68995;SDS011;56056;48.990;12.146;2023-01-16T01:43:13;9.00;;;3.70;;
68995;SDS011;56056;48.990;12.146;2023-01-16T01:45:39;23.17;;;10.40;;
68995;SDS011;56056;48.990;12.146;2023-01-16T01:48:11;34.80;;;12.63;;
68995;SDS011;56056;48.990;12.146;2023-01-16T01:50:49;17.37;;;11.73;;
68995;SDS011;56056;48.990;12.146;2023-01-16T01:53:17;42.83;;;22.23;;
68995;SDS011;56056;48.990;12.146;2023-01-16T01:55:45;21.53;;;9.27;;
68995;SDS011;56056;48.990;12.146;2023-01-16T01:58:13;25.87;;;19.60;;
68995;SDS011;56056;48.990;12.146;2023-01-16T02:00:44;66.13;;;40.75;;
68995;SDS011;56056;48.990;12.146;2023-01-16T02:03:10;53.73;;;36.30;;
68995;SDS011;56056;48.990;12.146;2023-01-16T02:05:40;18.60;;;8.47;;
68995;SDS011;56056;48.990;12.146;2023-01-16T02:08:10;60.77;;;35.43;;
68995;SDS011;56056;48.990;12.146;2023-01-16T02:10:39;10.30;;;7.83;;
68995;SDS011;56056;48.990;12.146;2023-01-16T02:13:08;37.38;;;24.85;;
68995;SDS011;56056;48.990;12.146;2023-01-16T02:15:33;27.40;;;15.00;;
68995;SDS011;56056;48.990;12.146;2023-01-16T02:18:00;53.40;;;23.03;;
68995;SDS011;56056;48.990;12.146;2023-01-16T02:20:46;49.58;;;28.05;;
68995;SDS011;56056;48.990;12.146;2023-01-16T02:26:28;74.60;;;49.43;;
68995;SDS011;56056;48.990;12.146;2023-01-16T02:29:25;60.03;;;47.60;;
68995;SDS011;56056;48.990;12.146;2023-01-16T02:32:04;53.08;;;35.25;;
68995;SDS011;56056;48.990;12.146;2023-01-16T02:34:43;55.22;;;32.25;;
68995;SDS011;56056;48.990;12.146;2023-01-16T02:37:22;12.85;;;9.43;;
68995;SDS011;56056;48.990;12.146;2023-01-16T02:39:53;80.90;;;72.47;;
68995;SDS011;56056;48.990;12.146;2023-01-16T02:42:26;56.50;;;50.72;;
68995;SDS011;56056;48.990;12.146;2023-01-16T02:44:57;6.93;;;5.88;;
68995;SDS011;56056;48.990;12.146;2023-01-16T02:47:28;199.98;;;111.47;;
68995;SDS011;56056;48.990;12.146;2023-01-16T02:50:03;35.65;;;17.42;;
68995;SDS011;56056;48.990;12.146;2023-01-16T02:52:35;6.55;;;5.20;;
68995;SDS011;56056;48.990;12.146;2023-01-16T02:55:06;53.85;;;32.92;;
68995;SDS011;56056;48.990;12.146;2023-01-16T02:57:35;50.28;;;23.30;;
68995;SDS011;56056;48.990;12.146;2023-01-16T03:00:03;44.30;;;22.88;;
68995;SDS011;56056;48.990;12.146;2023-01-16T03:02:31;27.10;;;13.25;;
68995;SDS011;56056;48.990;12.146;2023-01-16T03:04:57;43.72;;;26.40;;
68995;SDS011;56056;48.990;12.146;2023-01-16T03:07:39;5.50;;;4.10;;
68995;SDS011;56056;48.990;12.146;2023-01-16T03:10:29;5.63;;;5.25;;
68995;SDS011;56056;48.990;12.146;2023-01-16T03:13:05;28.30;;;5.77;;
68995;SDS011;56056;48.990;12.146;2023-01-16T03:15:39;58.15;;;29.40;;
68995;SDS011;56056;48.990;12.146;2023-01-16T03:18:12;8.30;;;4.60;;
68995;SDS011;56056;48.990;12.146;2023-01-16T03:20:44;7.13;;;4.10;;
68995;SDS011;56056;48.990;12.146;2023-01-16T03:23:18;76.47;;;36.72;;
68995;SDS011;56056;48.990;12.146;2023-01-16T03:25:48;2.75;;;2.65;;
68995;SDS011;56056;48.990;12.146;2023-01-16T03:28:18;153.77;;;102.40;;
68995;SDS011;56056;48.990;12.146;2023-01-16T03:30:48;57.35;;;37.38;;
68995;SDS011;56056;48.990;12.146;2023-01-16T03:33:20;11.98;;;5.78;;
68995;SDS011;56056;48.990;12.146;2023-01-16T03:35:51;26.40;;;12.18;;
68995;SDS011;56056;48.990;12.146;2023-01-16T03:38:20;21.02;;;12.45;;
68995;SDS011;56056;48.990;12.146;2023-01-16T03:40:47;52.00;;;32.17;;
68995;SDS011;56056;48.990;12.146;2023-01-16T03:43:15;34.43;;;13.13;;
68995;SDS011;56056;48.990;12.146;2023-01-16T03:45:44;72.22;;;61.30;;
68995;SDS011;56056;48.990;12.146;2023-01-16T03:48:13;97.60;;;66.80;;
68995;SDS011;56056;48.990;12.146;2023-01-16T03:50:46;26.10;;;17.63;;
68995;SDS011;56056;48.990;12.146;2023-01-16T03:53:15;84.23;;;66.40;;
68995;SDS011;56056;48.990;12.146;2023-01-16T03:55:44;54.70;;;27.77;;
68995;SDS011;56056;48.990;12.146;2023-01-16T03:58:13;5.90;;;5.53;;
68995;SDS011;56056;48.990;12.146;2023-01-16T04:00:46;32.47;;;17.27;;
68995;SDS011;56056;48.990;12.146;2023-01-16T04:03:14;19.73;;;16.20;;
68995;SDS011;56056;48.990;12.146;2023-01-16T04:05:45;20.73;;;8.30;;
68995;SDS011;56056;48.990;12.146;2023-01-16T04:08:14;43.77;;;20.33;;
68995;SDS011;56056;48.990;12.146;2023-01-16T04:10:43;225.88;;;101.05;;
68995;SDS011;56056;48.990;12.146;2023-01-16T04:13:12;37.87;;;24.50;;
68995;SDS011;56056;48.990;12.146;2023-01-16T04:15:40;43.38;;;32.25;;
68995;SDS011;56056;48.990;12.146;2023-01-16T04:18:08;76.37;;;50.50;;
68995;SDS011;56056;48.990;12.146;2023-01-16T04:20:34;61.28;;;45.90;;
68995;SDS011;56056;48.990;12.146;2023-01-16T04:23:02;61.30;;;55.57;;
68995;SDS011;56056;48.990;12.146;2023-01-16T04:25:28;18.40;;;13.27;;
68995;SDS011;56056;48.990;12.146;2023-01-16T04:27:53;108.00;;;96.43;;
68995;SDS011;56056;48.990;12.146;2023-01-16T04:30:19;96.20;;;85.68;;
68995;SDS011;56056;48.990;12.146;2023-01-16T04:32:45;30.80;;;28.60;;
68995;SDS011;56056;48.990;12.146;2023-01-16T04:35:11;48.37;;;40.93;;
68995;SDS011;56056;48.990;12.146;2023-01-16T04:37:36;58.47;;;50.27;;
68995;SDS011;56056;48.990;12.146;2023-01-16T04:40:04;55.93;;;29.87;;
68995;SDS011;56056;48.990;12.146;2023-01-16T04:42:33;200.52;;;179.38;;
68995;SDS011;56056;48.990;12.146;2023-01-16T04:44:59;80.63;;;72.07;;
68995;SDS011;56056;48.990;12.146;2023-01-16T04:47:24;40.73;;;28.37;;
68995;SDS011;56056;48.990;12.146;2023-01-16T04:49:50;61.67;;;44.67;;
68995;SDS011;56056;48.990;12.146;2023-01-16T04:52:16;68.40;;;60.37;;
68995;SDS011;56056;48.990;12.146;2023-01-16T04:54:41;36.40;;;32.90;;
68995;SDS011;56056;48.990;12.146;2023-01-16T04:57:08;44.70;;;41.90;;
68995;SDS011;56056;48.990;12.146;2023-01-16T04:59:34;67.63;;;56.07;;
68995;SDS011;56056;48.990;12.146;2023-01-16T05:02:00;49.33;;;39.30;;
68995;SDS011;56056;48.990;12.146;2023-01-16T05:04:25;246.13;;;114.63;;
68995;SDS011;56056;48.990;12.146;2023-01-16T05:06:51;117.87;;;107.83;;
68995;SDS011;56056;48.990;12.146;2023-01-16T05:09:16;38.22;;;29.85;;
68995;SDS011;56056;48.990;12.146;2023-01-16T05:11:42;116.80;;;105.67;;
68995;SDS011;56056;48.990;12.146;2023-01-16T05:14:09;42.60;;;38.10;;
68995;SDS011;56056;48.990;12.146;2023-01-16T05:16:35;29.73;;;23.97;;
68995;SDS011;56056;48.990;12.146;2023-01-16T05:19:01;124.07;;;104.77;;
68995;SDS011;56056;48.990;12.146;2023-01-16T05:21:27;163.33;;;147.93;;
68995;SDS011;56056;48.990;12.146;2023-01-16T05:23:53;61.37;;;44.90;;
68995;SDS011;56056;48.990;12.146;2023-01-16T05:26:18;150.20;;;136.77;;
68995;SDS011;56056;48.990;12.146;2023-01-16T05:28:44;81.83;;;48.80;;
68995;SDS011;56056;48.990;12.146;2023-01-16T05:31:11;26.87;;;24.30;;
68995;SDS011;56056;48.990;12.146;2023-01-16T05:33:37;313.67;;;149.50;;
68995;SDS011;56056;48.990;12.146;2023-01-16T05:36:02;200.88;;;134.15;;
68995;SDS011;56056;48.990;12.146;2023-01-16T05:38:28;87.17;;;78.97;;
68995;SDS011;56056;48.990;12.146;2023-01-16T05:40:54;42.67;;;38.87;;
68995;SDS011;56056;48.990;12.146;2023-01-16T05:43:20;38.93;;;32.57;;
68995;SDS011;56056;48.990;12.146;2023-01-16T05:45:46;95.43;;;85.43;;
68995;SDS011;56056;48.990;12.146;2023-01-16T05:48:13;18.53;;;16.93;;
68995;SDS011;56056;48.990;12.146;2023-01-16T05:50:38;90.77;;;82.03;;
68995;SDS011;56056;48.990;12.146;2023-01-16T05:53:04;163.20;;;147.83;;
68995;SDS011;56056;48.990;12.146;2023-01-16T05:55:30;21.70;;;17.80;;
68995;SDS011;56056;48.990;12.146;2023-01-16T05:57:56;172.37;;;154.57;;
68995;SDS011;56056;48.990;12.146;2023-01-16T06:00:22;898.47;;;278.80;;
68995;SDS011;56056;48.990;12.146;2023-01-16T06:02:47;224.50;;;203.17;;
68995;SDS011;56056;48.990;12.146;2023-01-16T06:05:14;57.30;;;48.47;;
68995;SDS011;56056;48.990;12.146;2023-01-16T06:07:40;84.03;;;74.90;;
68995;SDS011;56056;48.990;12.146;2023-01-16T06:10:07;119.83;;;109.63;;
68995;SDS011;56056;48.990;12.146;2023-01-16T06:12:34;152.40;;;135.87;;
68995;SDS011;56056;48.990;12.146;2023-01-16T06:14:59;137.07;;;124.13;;
68995;SDS011;56056;48.990;12.146;2023-01-16T06:17:25;37.63;;;32.07;;
68995;SDS011;56056;48.990;12.146;2023-01-16T06:19:50;130.87;;;97.30;;
68995;SDS011;56056;48.990;12.146;2023-01-16T06:22:18;157.93;;;141.70;;
68995;SDS011;56056;48.990;12.146;2023-01-16T06:24:43;58.57;;;40.30;;
68995;SDS011;56056;48.990;12.146;2023-01-16T06:27:09;35.07;;;31.97;;
68995;SDS011;56056;48.990;12.146;2023-01-16T06:29:35;171.50;;;155.47;;
68995;SDS011;56056;48.990;12.146;2023-01-16T06:32:01;130.97;;;117.50;;
68995;SDS011;56056;48.990;12.146;2023-01-16T06:34:27;236.63;;;210.52;;
68995;SDS011;56056;48.990;12.146;2023-01-16T06:36:52;170.03;;;150.83;;
68995;SDS011;56056;48.990;12.146;2023-01-16T06:39:19;177.20;;;157.87;;
68995;SDS011;56056;48.990;12.146;2023-01-16T06:41:45;96.97;;;88.33;;
68995;SDS011;56056;48.990;12.146;2023-01-16T06:44:11;406.23;;;338.80;;
68995;SDS011;56056;48.990;12.146;2023-01-16T06:46:36;260.40;;;178.70;;
68995;SDS011;56056;48.990;12.146;2023-01-16T06:49:02;571.33;;;408.17;;
68995;SDS011;56056;48.990;12.146;2023-01-16T06:51:27;11.80;;;9.93;;
68995;SDS011;56056;48.990;12.146;2023-01-16T06:53:53;821.67;;;544.37;;
68995;SDS011;56056;48.990;12.146;2023-01-16T06:56:20;137.43;;;121.10;;
68995;SDS011;56056;48.990;12.146;2023-01-16T06:58:46;746.03;;;611.53;;
68995;SDS011;56056;48.990;12.146;2023-01-16T07:01:11;132.33;;;118.27;;
68995;SDS011;56056;48.990;12.146;2023-01-16T07:03:37;119.10;;;86.60;;
68995;SDS011;56056;48.990;12.146;2023-01-16T07:06:02;209.20;;;171.00;;
68995;SDS011;56056;48.990;12.146;2023-01-16T07:08:28;152.43;;;139.40;;
68995;SDS011;56056;48.990;12.146;2023-01-16T07:10:57;592.40;;;423.47;;
68995;SDS011;56056;48.990;12.146;2023-01-16T07:13:24;213.27;;;189.70;;
68995;SDS011;56056;48.990;12.146;2023-01-16T07:15:53;184.17;;;166.87;;
68995;SDS011;56056;48.990;12.146;2023-01-16T07:18:38;260.77;;;231.90;;
68995;SDS011;56056;48.990;12.146;2023-01-16T07:21:23;421.97;;;382.57;;
68995;SDS011;56056;48.990;12.146;2023-01-16T07:24:09;140.17;;;126.77;;
68995;SDS011;56056;48.990;12.146;2023-01-16T07:26:38;203.47;;;182.13;;
68995;SDS011;56056;48.990;12.146;2023-01-16T07:29:07;79.33;;;73.57;;
68995;SDS011;56056;48.990;12.146;2023-01-16T07:31:32;673.47;;;388.93;;
68995;SDS011;56056;48.990;12.146;2023-01-16T07:33:58;89.33;;;65.13;;
68995;SDS011;56056;48.990;12.146;2023-01-16T07:36:24;122.57;;;62.93;;
68995;SDS011;56056;48.990;12.146;2023-01-16T07:38:50;208.60;;;176.32;;
68995;SDS011;56056;48.990;12.146;2023-01-16T07:41:15;49.20;;;44.50;;
68995;SDS011;56056;48.990;12.146;2023-01-16T07:43:41;3.72;;;2.60;;
68995;SDS011;56056;48.990;12.146;2023-01-16T07:46:08;58.13;;;41.60;;
68995;SDS011;56056;48.990;12.146;2023-01-16T07:48:34;9.35;;;6.40;;
68995;SDS011;56056;48.990;12.146;2023-01-16T07:51:00;7.88;;;7.40;;
68995;SDS011;56056;48.990;12.146;2023-01-16T07:53:26;3.80;;;3.58;;
68995;SDS011;56056;48.990;12.146;2023-01-16T07:55:53;49.53;;;16.50;;
68995;SDS011;56056;48.990;12.146;2023-01-16T07:58:20;46.85;;;12.73;;
68995;SDS011;56056;48.990;12.146;2023-01-16T08:00:46;0.55;;;0.55;;
68995;SDS011;56056;48.990;12.146;2023-01-16T08:03:13;161.68;;;50.35;;
68995;SDS011;56056;48.990;12.146;2023-01-16T08:05:40;2.08;;;1.98;;
68995;SDS011;56056;48.990;12.146;2023-01-16T08:08:08;3.58;;;1.10;;
68995;SDS011;56056;48.990;12.146;2023-01-16T08:10:34;0.82;;;0.82;;
68995;SDS011;56056;48.990;12.146;2023-01-16T08:12:59;37.25;;;7.32;;
68995;SDS011;56056;48.990;12.146;2023-01-16T08:15:25;551.97;;;138.02;;
68995;SDS011;56056;48.990;12.146;2023-01-16T08:17:51;2.33;;;2.22;;
68995;SDS011;56056;48.990;12.146;2023-01-16T08:20:18;145.43;;;27.05;;
68995;SDS011;56056;48.990;12.146;2023-01-16T08:22:44;31.55;;;6.55;;
68995;SDS011;56056;48.990;12.146;2023-01-16T08:25:10;4.43;;;3.15;;
68995;SDS011;56056;48.990;12.146;2023-01-16T08:27:36;930.15;;;237.00;;
68995;SDS011;56056;48.990;12.146;2023-01-16T08:30:02;125.78;;;32.50;;
68995;SDS011;56056;48.990;12.146;2023-01-16T08:32:28;156.57;;;71.68;;
68995;SDS011;56056;48.990;12.146;2023-01-16T08:34:53;331.85;;;96.85;;
68995;SDS011;56056;48.990;12.146;2023-01-16T08:37:20;193.63;;;77.18;;
68995;SDS011;56056;48.990;12.146;2023-01-16T08:39:46;239.55;;;89.32;;
68995;SDS011;56056;48.990;12.146;2023-01-16T08:42:11;1444.15;;;398.38;;
68995;SDS011;56056;48.990;12.146;2023-01-16T08:44:56;420.02;;;94.03;;
68995;SDS011;56056;48.990;12.146;2023-01-16T08:47:40;149.82;;;67.63;;
68995;SDS011;56056;48.990;12.146;2023-01-16T08:50:24;1902.43;;;507.20;;
68995;SDS011;56056;48.990;12.146;2023-01-16T08:53:09;233.10;;;80.53;;
68995;SDS011;56056;48.990;12.146;2023-01-16T08:55:35;803.78;;;275.73;;
68995;SDS011;56056;48.990;12.146;2023-01-16T08:58:01;1491.00;;;358.77;;
68995;SDS011;56056;48.990;12.146;2023-01-16T09:00:27;1430.30;;;410.40;;
68995;SDS011;56056;48.990;12.146;2023-01-16T09:02:53;1428.32;;;371.98;;
68995;SDS011;56056;48.990;12.146;2023-01-16T09:05:21;491.65;;;209.50;;
68995;SDS011;56056;48.990;12.146;2023-01-16T09:07:46;1999.90;;;918.90;;
68995;SDS011;56056;48.990;12.146;2023-01-16T09:10:14;1999.90;;;788.45;;
68995;SDS011;56056;48.990;12.146;2023-01-16T09:12:40;1999.90;;;732.72;;
68995;SDS011;56056;48.990;12.146;2023-01-16T09:15:25;1976.45;;;591.00;;
68995;SDS011;56056;48.990;12.146;2023-01-16T09:17:50;1148.68;;;342.15;;
68995;SDS011;56056;48.990;12.146;2023-01-16T09:20:16;1458.10;;;467.27;;
68995;SDS011;56056;48.990;12.146;2023-01-16T09:22:42;224.82;;;99.63;;
68995;SDS011;56056;48.990;12.146;2023-01-16T09:25:08;417.65;;;192.75;;
68995;SDS011;56056;48.990;12.146;2023-01-16T09:27:35;1999.90;;;696.60;;
68995;SDS011;56056;48.990;12.146;2023-01-16T09:30:01;1220.28;;;370.67;;
68995;SDS011;56056;48.990;12.146;2023-01-16T09:32:27;823.45;;;404.20;;
68995;SDS011;56056;48.990;12.146;2023-01-16T09:34:53;385.02;;;190.15;;
68995;SDS011;56056;48.990;12.146;2023-01-16T09:37:19;943.10;;;489.13;;
68995;SDS011;56056;48.990;12.146;2023-01-16T09:39:44;1999.90;;;521.58;;
68995;SDS011;56056;48.990;12.146;2023-01-16T09:42:29;1606.78;;;509.27;;
68995;SDS011;56056;48.990;12.146;2023-01-16T09:45:22;872.50;;;332.77;;
68995;SDS011;56056;48.990;12.146;2023-01-16T09:47:50;1999.90;;;837.22;;
68995;SDS011;56056;48.990;12.146;2023-01-16T09:50:20;1100.95;;;491.88;;
68995;SDS011;56056;48.990;12.146;2023-01-16T09:52:51;835.45;;;290.52;;
68995;SDS011;56056;48.990;12.146;2023-01-16T09:55:37;136.07;;;49.63;;
68995;SDS011;56056;48.990;12.146;2023-01-16T09:58:25;1999.90;;;722.15;;
68995;SDS011;56056;48.990;12.146;2023-01-16T10:01:01;1942.18;;;659.17;;
68995;SDS011;56056;48.990;12.146;2023-01-16T10:03:27;1319.47;;;424.80;;
68995;SDS011;56056;48.990;12.146;2023-01-16T10:06:04;1999.90;;;821.38;;
68995;SDS011;56056;48.990;12.146;2023-01-16T10:08:35;1028.78;;;431.65;;
68995;SDS011;56056;48.990;12.146;2023-01-16T10:11:06;1973.65;;;656.97;;
68995;SDS011;56056;48.990;12.146;2023-01-16T10:13:42;1999.90;;;759.38;;
68995;SDS011;56056;48.990;12.146;2023-01-16T10:16:25;1999.90;;;670.95;;
68995;SDS011;56056;48.990;12.146;2023-01-16T10:18:58;1649.15;;;491.55;;
68995;SDS011;56056;48.990;12.146;2023-01-16T10:21:34;1999.90;;;642.90;;
68995;SDS011;56056;48.990;12.146;2023-01-16T10:24:08;1999.90;;;925.13;;
68995;SDS011;56056;48.990;12.146;2023-01-16T10:26:41;1999.90;;;986.80;;
68995;SDS011;56056;48.990;12.146;2023-01-16T10:29:17;1999.90;;;902.00;;
68995;SDS011;56056;48.990;12.146;2023-01-16T10:31:47;1999.90;;;999.90;;
68995;SDS011;56056;48.990;12.146;2023-01-16T10:34:15;1999.90;;;828.25;;
68995;SDS011;56056;48.990;12.146;2023-01-16T10:36:47;1999.90;;;786.78;;
68995;SDS011;56056;48.990;12.146;2023-01-16T10:39:15;1999.90;;;718.03;;
68995;SDS011;56056;48.990;12.146;2023-01-16T10:41:44;1999.90;;;856.60;;
68995;SDS011;56056;48.990;12.146;2023-01-16T10:44:33;1999.90;;;670.90;;
68995;SDS011;56056;48.990;12.146;2023-01-16T10:47:18;1999.90;;;791.05;;
68995;SDS011;56056;48.990;12.146;2023-01-16T10:50:05;1999.90;;;914.92;;
68995;SDS011;56056;48.990;12.146;2023-01-16T10:52:33;1999.90;;;507.38;;
68995;SDS011;56056;48.990;12.146;2023-01-16T10:54:59;1999.90;;;836.50;;
68995;SDS011;56056;48.990;12.146;2023-01-16T10:57:26;1999.90;;;999.90;;
68995;SDS011;56056;48.990;12.146;2023-01-16T10:59:54;1999.90;;;906.92;;
68995;SDS011;56056;48.990;12.146;2023-01-16T11:02:23;1999.90;;;999.90;;
68995;SDS011;56056;48.990;12.146;2023-01-16T11:04:52;1999.90;;;857.78;;
68995;SDS011;56056;48.990;12.146;2023-01-16T11:07:19;1999.90;;;766.78;;
68995;SDS011;56056;48.990;12.146;2023-01-16T11:09:45;1999.90;;;708.28;;
68995;SDS011;56056;48.990;12.146;2023-01-16T11:12:11;1999.90;;;993.67;;
68995;SDS011;56056;48.990;12.146;2023-01-16T11:15:04;1999.90;;;873.42;;
68995;SDS011;56056;48.990;12.146;2023-01-16T11:17:53;1999.90;;;617.42;;
68995;SDS011;56056;48.990;12.146;2023-01-16T11:20:38;1999.90;;;999.90;;
68995;SDS011;56056;48.990;12.146;2023-01-16T11:23:12;1999.90;;;591.92;;
68995;SDS011;56056;48.990;12.146;2023-01-16T11:25:42;1999.90;;;866.80;;
68995;SDS011;56056;48.990;12.146;2023-01-16T11:28:10;1999.90;;;886.03;;
68995;SDS011;56056;48.990;12.146;2023-01-16T11:30:43;1999.90;;;835.38;;
68995;SDS011;56056;48.990;12.146;2023-01-16T11:33:12;1999.90;;;999.90;;
68995;SDS011;56056;48.990;12.146;2023-01-16T11:35:39;1999.90;;;752.35;;
68995;SDS011;56056;48.990;12.146;2023-01-16T11:38:12;1999.90;;;882.78;;
68995;SDS011;56056;48.990;12.146;2023-01-16T11:40:43;1999.90;;;833.38;;
68995;SDS011;56056;48.990;12.146;2023-01-16T11:43:12;1424.07;;;528.97;;
68995;SDS011;56056;48.990;12.146;2023-01-16T11:45:59;1999.90;;;525.03;;
68995;SDS011;56056;48.990;12.146;2023-01-16T11:48:27;1042.63;;;293.80;;
68995;SDS011;56056;48.990;12.146;2023-01-16T11:50:54;1994.55;;;361.75;;
68995;SDS011;56056;48.990;12.146;2023-01-16T11:53:20;1999.90;;;464.75;;
68995;SDS011;56056;48.990;12.146;2023-01-16T11:55:49;427.73;;;126.05;;
68995;SDS011;56056;48.990;12.146;2023-01-16T11:58:26;471.63;;;148.52;;
68995;SDS011;56056;48.990;12.146;2023-01-16T12:01:01;1021.13;;;242.88;;
68995;SDS011;56056;48.990;12.146;2023-01-16T12:03:36;806.20;;;157.45;;
68995;SDS011;56056;48.990;12.146;2023-01-16T12:06:10;797.17;;;226.90;;
68995;SDS011;56056;48.990;12.146;2023-01-16T12:08:47;45.13;;;23.75;;
68995;SDS011;56056;48.990;12.146;2023-01-16T12:11:39;419.83;;;92.03;;
68995;SDS011;56056;48.990;12.146;2023-01-16T12:14:14;823.83;;;154.35;;
68995;SDS011;56056;48.990;12.146;2023-01-16T12:19:41;930.28;;;218.40;;
68995;SDS011;56056;48.990;12.146;2023-01-16T12:22:16;568.15;;;130.63;;
68995;SDS011;56056;48.990;12.146;2023-01-16T12:24:49;61.38;;;30.42;;
68995;SDS011;56056;48.990;12.146;2023-01-16T12:27:26;435.48;;;116.50;;
68995;SDS011;56056;48.990;12.146;2023-01-16T12:30:00;772.65;;;293.15;;
68995;SDS011;56056;48.990;12.146;2023-01-16T12:32:34;216.15;;;47.63;;
68995;SDS011;56056;48.990;12.146;2023-01-16T12:35:23;490.70;;;99.82;;
68995;SDS011;56056;48.990;12.146;2023-01-16T12:38:09;8.80;;;5.25;;
68995;SDS011;56056;48.990;12.146;2023-01-16T12:40:41;97.43;;;42.38;;
68995;SDS011;56056;48.990;12.146;2023-01-16T12:43:53;48.58;;;31.88;;
68995;SDS011;56056;48.990;12.146;2023-01-16T12:46:27;701.63;;;139.07;;
68995;SDS011;56056;48.990;12.146;2023-01-16T12:49:01;1631.28;;;278.80;;
68995;SDS011;56056;48.990;12.146;2023-01-16T12:51:40;1999.90;;;658.88;;
68995;SDS011;56056;48.990;12.146;2023-01-16T12:54:21;678.28;;;149.00;;
68995;SDS011;56056;48.990;12.146;2023-01-16T12:57:09;530.47;;;104.25;;
68995;SDS011;56056;48.990;12.146;2023-01-16T12:59:43;41.28;;;23.17;;
68995;SDS011;56056;48.990;12.146;2023-01-16T13:02:15;122.53;;;40.67;;
68995;SDS011;56056;48.990;12.146;2023-01-16T13:04:48;514.97;;;104.05;;
68995;SDS011;56056;48.990;12.146;2023-01-16T13:07:15;1056.70;;;251.45;;
68995;SDS011;56056;48.990;12.146;2023-01-16T13:09:43;1169.22;;;254.25;;
68995;SDS011;56056;48.990;12.146;2023-01-16T13:12:14;127.50;;;43.50;;
68995;SDS011;56056;48.990;12.146;2023-01-16T13:15:02;171.40;;;61.15;;
68995;SDS011;56056;48.990;12.146;2023-01-16T13:17:36;160.68;;;62.42;;
68995;SDS011;56056;48.990;12.146;2023-01-16T13:20:10;34.65;;;8.55;;
68995;SDS011;56056;48.990;12.146;2023-01-16T13:22:38;1172.07;;;231.57;;
68995;SDS011;56056;48.990;12.146;2023-01-16T13:25:12;54.65;;;34.47;;
68995;SDS011;56056;48.990;12.146;2023-01-16T13:27:43;6.93;;;1.58;;
68995;SDS011;56056;48.990;12.146;2023-01-16T13:30:12;50.70;;;19.52;;
68995;SDS011;56056;48.990;12.146;2023-01-16T13:32:40;41.72;;;21.30;;
68995;SDS011;56056;48.990;12.146;2023-01-16T13:35:07;907.88;;;180.13;;
68995;SDS011;56056;48.990;12.146;2023-01-16T13:37:44;32.60;;;7.38;;
68995;SDS011;56056;48.990;12.146;2023-01-16T13:40:30;854.97;;;195.45;;
68995;SDS011;56056;48.990;12.146;2023-01-16T13:43:00;295.02;;;83.10;;
68995;SDS011;56056;48.990;12.146;2023-01-16T13:45:48;57.13;;;33.22;;
68995;SDS011;56056;48.990;12.146;2023-01-16T13:48:15;44.78;;;20.67;;
68995;SDS011;56056;48.990;12.146;2023-01-16T13:50:45;46.25;;;21.73;;
68995;SDS011;56056;48.990;12.146;2023-01-16T13:53:15;43.08;;;12.20;;
68995;SDS011;56056;48.990;12.146;2023-01-16T13:55:40;29.55;;;12.07;;
68995;SDS011;56056;48.990;12.146;2023-01-16T13:58:09;53.80;;;38.17;;
68995;SDS011;56056;48.990;12.146;2023-01-16T14:00:38;537.83;;;119.70;;
68995;SDS011;56056;48.990;12.146;2023-01-16T14:03:16;108.18;;;37.70;;
68995;SDS011;56056;48.990;12.146;2023-01-16T14:05:46;101.32;;;27.65;;
68995;SDS011;56056;48.990;12.146;2023-01-16T14:08:17;138.90;;;30.63;;
68995;SDS011;56056;48.990;12.146;2023-01-16T14:11:22;45.67;;;21.02;;
68995;SDS011;56056;48.990;12.146;2023-01-16T14:14:30;111.28;;;30.00;;
68995;SDS011;56056;48.990;12.146;2023-01-16T14:20:36;54.15;;;36.15;;
68995;SDS011;56056;48.990;12.146;2023-01-16T14:23:13;28.05;;;17.75;;
68995;SDS011;56056;48.990;12.146;2023-01-16T14:26:01;50.40;;;27.45;;